• Join FlightAware (Why Join?)
  • Login
  • US Flag 
11:51PM EST


 

Airport Tracker/Info


-or-


 

Live Flight TrackerFlight Track Log ✈ FFT667 ✈ 08-May-2013 ✈ KDEN - KSFO

Flight Track Log - Related Links

Times and Time Zones

All times are in EDT time to prevent confusion due to time zone crossing. See the FFT667 flight status page for this flight to view local times or setup timezone preferences in your user account.

Time Position Orientation Groundspeed Altitude Reporting Facility
EDT Latitude Longitude Course Direction KTS MPH feet Rate Location/Type
01:04AM 39.9333 -104.6833 270° West 178 205 7,200  Level Denver TRACON
01:05AM 40.0000 -104.6833 360° North 244 281 8,500 1,800 Climbing Denver TRACON
01:06AM 40.0800 -104.7039 349° North 295 339 11,100 2,100 Climbing Denver Center
01:07AM 40.0792 -104.8267 270° West 365 420 13,200 2,400 Climbing Denver Center
01:08AM 40.0475 -104.9558 252° West 375 432 16,000 2,400 Climbing Denver Center
01:09AM 39.8500 -105.4262 270° West  Level FlightAware Approximate
01:09AM 40.0222 -105.0908 256° West 384 442 18,100  Level Denver Center
01:10AM 40.0075 -105.2469 263° West 402 463 20,600 2,100 Climbing Denver Center
01:11AM 39.9911 -105.3947 262° West 414 476 22,400 1,500 Climbing Denver Center
01:12AM 39.9767 -105.5486 263° West 429 494 24,000 1,560 Climbing Denver Center
01:13AM 39.9567 -105.7317 262° West 445 512 25,900 1,620 Climbing Denver Center
01:14AM 39.9400 -105.8703 261° West 431 496 27,300 1,320 Climbing Denver Center
01:15AM 39.9217 -106.0331 262° West 450 518 28,600 1,200 Climbing Denver Center
01:16AM 39.9039 -106.2000 262° West 464 534 29,800 1,500 Climbing Denver Center
01:17AM 39.8814 -106.4003 262° West 468 539 31,700 1,680 Climbing Denver Center
01:18AM 39.8633 -106.5644 262° West 462 532 33,200 1,320 Climbing Denver Center
01:19AM 39.8439 -106.7269 261° West 459 528 34,400 1,080 Climbing Denver Center
01:20AM 39.8261 -106.8883 262° West 456 525 35,400 780 Climbing Denver Center
01:21AM 39.8064 -107.0514 261° West 460 529 36,000 300 Climbing Denver Center
01:22AM 39.7867 -107.2222 262° West 450 518 36,000  Level Denver Center
01:23AM 39.7675 -107.3758 261° West 450 518 36,000  Level Denver Center
01:24AM 39.7481 -107.5317 261° West 457 526 36,000  Level Denver Center
01:25AM 39.7292 -107.6892 261° West 459 528 36,000  Level Denver Center
01:26AM 39.7067 -107.8719 261° West 461 531 36,000  Level Denver Center
01:27AM 39.6856 -108.0281 260° West 458 527 36,000  Level Denver Center
01:28AM 39.6644 -108.1828 260° West 458 527 36,000  Level Denver Center
01:29AM 39.6433 -108.3608 261° West 447 514 36,000  Level Denver Center
01:30AM 39.6231 -108.5142 260° West 447 514 36,000  Level Denver Center
01:31AM 39.6031 -108.6661 260° West 443 510 36,000  Level Denver Center
01:32AM 39.5797 -108.8275 259° West 458 527 36,000  Level Denver Center
01:33AM 39.5600 -108.9806 261° West 447 514 36,000  Level Denver Center
01:34AM 39.5361 -109.1592 260° West 449 517 36,000  Level Denver Center
01:35AM 39.5144 -109.3142 260° West 455 524 36,100  Climbing Denver Center
01:36AM 39.4928 -109.4692 260° West 455 524 36,000 -60 Descending Denver Center
01:37AM 39.4714 -109.6236 260° West 455 524 36,000  Level Denver Center
01:38AM 39.4464 -109.8008 260° West 449 517 36,000  Level Denver Center
01:39AM 39.4239 -109.9525 259° West 447 514 36,000  Level Denver Center
01:40AM 39.4028 -110.1022 260° West 444 511 36,000  Level Denver Center
01:41AM 39.3769 -110.2767 259° West 442 509 36,000  Level Denver Center
01:42AM 39.3539 -110.4275 259° West 446 513 36,000  Level Denver Center
01:43AM 39.3319 -110.5767 259° West 444 511 36,000  Level Denver Center
01:44AM 39.3031 -110.7789 260° West 449 517 36,100  Climbing Salt Lake Center
01:45AM 39.2792 -110.9289 258° West 447 514 36,000 -60 Descending Salt Lake Center
01:46AM 39.2561 -111.0792 259° West 447 514 36,000  Level Salt Lake Center
01:47AM 39.2269 -111.2550 258° West 448 516 36,000  Level Salt Lake Center
01:48AM 39.2031 -111.4203 259° West 458 527 36,000  Level Salt Lake Center
01:49AM 39.1769 -111.5781 258° West 454 522 36,000  Level Salt Lake Center
01:50AM 39.1506 -111.7378 258° West 457 526 36,000  Level Salt Lake Center
01:51AM 39.1258 -111.8981 259° West 458 527 36,000  Level Salt Lake Center
01:52AM 39.0994 -112.0569 258° West 457 526 36,000  Level Salt Lake Center
01:53AM 39.0728 -112.2167 258° West 458 527 36,000  Level Salt Lake Center
01:54AM 39.0464 -112.3758 258° West 459 528 36,000  Level Salt Lake Center
01:55AM 39.0192 -112.5350 258° West 458 527 36,000  Level Salt Lake Center
01:56AM 38.9919 -112.6922 257° West 455 524 36,000  Level Salt Lake Center
01:57AM 38.9653 -112.8494 258° West 455 524 36,000  Level Salt Lake Center
01:58AM 38.9378 -113.0061 257° West 453 521 36,000  Level Salt Lake Center
02:00AM 38.9108 -113.1636 258° West 454 522 36,000  Level Salt Lake Center
02:01AM 38.8831 -113.3222 257° West 455 524 36,100  Climbing Salt Lake Center
02:02AM 38.8550 -113.4808 257° West 458 527 36,000 -60 Descending Salt Lake Center
02:03AM 38.8267 -113.6369 257° West 454 522 36,000  Level Salt Lake Center
02:04AM 38.7983 -113.7939 257° West 454 522 36,000  Level Salt Lake Center
02:05AM 38.7708 -113.9497 257° West 453 521 36,000  Level Salt Lake Center
02:06AM 38.7428 -114.1050 257° West 451 519 36,000  Level Salt Lake Center
02:07AM 38.7072 -114.2925 256° West 454 522 36,000  Level Salt Lake Center
02:08AM 38.6778 -114.4492 257° West 454 522 36,000  Level Salt Lake Center
02:09AM 38.6678 -114.6094 265° West 460 529 36,000  Level Salt Lake Center
02:10AM 38.7286 -114.7444 300° West 449 517 36,000  Level Salt Lake Center
02:11AM 38.8106 -114.8619 312° West 444 511 36,000  Level Salt Lake Center
02:12AM 38.8928 -114.9831 311° West 449 517 36,000  Level Salt Lake Center
02:13AM 38.9681 -115.1108 307° West 450 518 36,000  Level Salt Lake Center
02:14AM 38.9658 -115.2728 269° West 457 526 36,000  Level Salt Lake Center
02:15AM 38.9144 -115.4144 245° Southwest 453 521 36,000  Level Salt Lake Center
02:16AM 38.8611 -115.5597 245° Southwest 451 519 36,000  Level Salt Lake Center
02:17AM 38.8064 -115.7039 244° Southwest 450 518 36,000  Level Salt Lake Center
02:18AM 38.7528 -115.8461 244° Southwest 445 512 36,000  Level Salt Lake Center
02:19AM 38.7011 -115.9836 244° Southwest 432 497 36,000  Level Salt Lake Center
02:20AM 38.6481 -116.1219 244° Southwest 432 497 36,000  Level Salt Lake Center
02:21AM 38.6058 -116.2311 244° Southwest 431 496 36,000  Level Oakland Center
02:22AM 38.5433 -116.3958 244° Southwest 429 494 36,000  Level Oakland Center
02:23AM 38.4897 -116.5328 243° Southwest 431 496 36,000  Level Oakland Center
02:24AM 38.4364 -116.6714 244° Southwest 434 499 36,100  Climbing Oakland Center
02:25AM 38.3822 -116.8108 244° Southwest 438 504 36,100  Level Oakland Center
02:26AM 38.3281 -116.9500 244° Southwest 439 505 36,100 -60 Level Oakland Center
02:27AM 38.2744 -117.0878 244° Southwest 439 505 36,000 -60 Descending Oakland Center
02:28AM 38.2197 -117.2261 243° Southwest 433 498 36,000  Level Oakland Center
02:29AM 38.1461 -117.3447 232° Southwest 441 507 36,000  Level Oakland Center
02:30AM 38.0475 -117.4064 206° Southwest 446 513 36,000  Level Oakland Center
02:31AM 37.9406 -117.4683 205° Southwest 428 493 36,000  Level Oakland Center
02:32AM 37.8131 -117.5436 205° Southwest 423 487 36,000  Level Oakland Center
02:33AM 37.7039 -117.6078 205° Southwest 431 496 36,000  Level Oakland Center
02:34AM 37.6178 -117.7050 222° Southwest 443 510 36,100  Climbing Oakland Center
02:35AM 37.5964 -117.8525 260° West 433 498 36,100 -60 Level Oakland Center
02:36AM 37.6006 -118.0047 272° West 433 498 36,000 -60 Descending Oakland Center
02:37AM 37.6033 -118.1586 271° West 437 503 36,000  Level Oakland Center
02:38AM 37.6064 -118.3117 271° West 436 502 36,000  Level Oakland Center
02:39AM 37.6094 -118.4636 272° West 434 499 36,000  Level Oakland Center
02:40AM 37.6128 -118.6181 272° West 437 503 36,000  Level Oakland Center
02:41AM 37.6150 -118.7714 271° West 436 502 36,000  Level Oakland Center
02:42AM 37.6192 -118.9211 272° West 437 503 36,000  Level Oakland Center
02:43AM 37.6197 -119.0753 270° West 438 504 36,000 -300 Level Oakland Center
02:44AM 37.6186 -119.2314 270° West 444 511 35,400 -840 Descending Oakland Center
02:45AM 37.6219 -119.3861 272° West 443 510 34,400 -1,080 Descending Oakland Center
02:46AM 37.6239 -119.5356 271° West 434 499 33,300 -1,020 Descending Oakland Center
02:47AM 37.6272 -119.6844 272° West 429 494 32,400 -960 Descending Oakland Center
02:48AM 37.6275 -119.8306 270° West 423 487 31,400 -1,080 Descending Oakland Center
02:49AM 37.6256 -119.9769 269° West 417 480 30,300 -1,080 Descending Oakland Center
02:50AM 37.6264 -120.1189 270° West 409 471 29,300 -1,020 Descending Oakland Center
02:51AM 37.6272 -120.2581 270° West 401 461 28,300 -1,380 Descending Oakland Center
02:52AM 37.6269 -120.3972 270° West 396 456 26,600 -1,740 Descending Oakland Center
02:53AM 37.6275 -120.5311 270° West 385 443 24,900 -1,860 Descending Oakland Center
02:54AM 37.6283 -120.6586 271° West 366 421 22,900 -1,800 Descending Oakland Center
02:55AM 37.6281 -120.7858 270° West 362 417 21,300 -1,740 Descending Oakland Center
02:56AM 37.6267 -120.9064 269° West 348 400 19,500 -1,740 Descending Oakland Center
02:57AM 37.6203 -121.0239 266° West 337 388 17,900 -1,620 Descending Oakland Center
02:58AM 37.6047 -121.1556 262° West 329 379 16,300 -1,560 Descending Oakland Center
02:59AM 37.5917 -121.2675 262° West 324 373 14,800 -1,500 Descending Oakland Center
03:00AM 37.5800 -121.3756 262° West 315 362 13,300 -1,440 Descending Oakland Center
03:01AM 37.5672 -121.4839 262° West 312 359 12,000 -1,200 Descending Oakland Center
03:02AM 37.5550 -121.5889 262° West 307 353 11,000 -600 Descending Oakland Center
03:03AM 37.5667 -121.6889 278° West 309 356 10,900 -480 Descending Oakland Center
03:04AM 37.6136 -121.7733 305° West 295 339 10,100 -540 Descending Oakland Center
03:05AM 37.6578 -121.8586 303° West 294 338 9,900 -120 Descending Oakland Center
03:06AM 37.6544 -121.9622 268° West 295 339 9,900 -180 Level Oakland Center
03:07AM 37.6447 -122.0650 263° West 295 339 9,600 -420 Descending Oakland Center
03:08AM 37.6011 -122.1181 224° Southwest 263 303 9,100 -360 Descending Oakland Center
03:09AM 37.5556 -122.0561 133° Southeast 246 283 8,900 -60 Descending Oakland Center
03:10AM 37.5333 -121.9667 107° East 237 273 9,000  Climbing Northern Cal TRACON
03:11AM 37.5167 -121.8833 104° East 238 274 9,000 -360 Level Northern Cal TRACON
03:12AM 37.5000 -121.8167 107° East 238 274 8,300 -540 Descending Northern Cal TRACON
03:13AM 37.4500 -121.7833 152° Southeast 254 292 8,000 -180 Descending Northern Cal TRACON
03:14AM 37.4167 -121.8500 238° Southwest 238 274 8,000  Level Northern Cal TRACON
03:15AM 37.4333 -121.9167 287° West 206 237 8,000 -480 Level Northern Cal TRACON
03:16AM 37.4500 -121.9667 293° West 201 231 7,100 -960 Descending Northern Cal TRACON
03:17AM 37.4833 -122.0333 302° West 183 211 6,100 -1,200 Descending Northern Cal TRACON
03:18AM 37.5000 -122.0833 293° West 176 203 4,700 -1,200 Descending Northern Cal TRACON
03:19AM 37.5167 -122.1333 293° West 169 194 3,800 -900 Descending Northern Cal TRACON
03:20AM 37.5500 -122.1833 310° West 151 174 2,900 -840 Descending Northern Cal TRACON
03:21AM 37.5606 -122.2325 285° West 155 178 2,100 -720 Descending Oakland Center
03:22AM 37.5789 -122.2761 298° West 148 170 1,400 -660 Descending Oakland Center
03:23AM 37.5953 -122.3136 299° West 136 157 800 -660 Descending Oakland Center
03:24AM 37.6089 -122.3525 294° West 127 146 100 -720 Descending Oakland Center